createdAt,value
2022-09-26T00:00:31.303Z,98650.38
2022-09-26T00:06:33.224Z,98636.59
2022-09-26T00:12:35.143Z,98636.16
2022-09-26T00:18:37.808Z,98635.34
2022-09-26T00:24:39.711Z,98626.50
2022-09-26T00:30:42.699Z,98612.31
2022-09-26T00:36:44.658Z,98602.69
2022-09-26T00:42:46.948Z,98601.59
2022-09-26T00:49:13.735Z,98603.03
2022-09-26T00:55:21.409Z,98599.34
2022-09-26T01:01:23.525Z,98587.25
2022-09-26T01:07:28.407Z,98576.31
2022-09-26T01:13:34.423Z,98566.84
2022-09-26T01:20:21.251Z,98556.19
2022-09-26T01:26:55.501Z,98542.81
2022-09-26T01:33:34.062Z,98540.16
2022-09-26T01:39:49.289Z,98532.59
2022-09-26T01:46:00.792Z,98526.22
2022-09-26T01:59:36.525Z,98530.72
2022-09-26T02:06:09.609Z,98511.78
2022-09-26T02:12:39.309Z,98502.72
2022-09-26T02:18:51.063Z,98498.03
2022-09-26T02:24:53.908Z,98497.56
2022-09-26T02:31:01.250Z,98484.19
2022-09-26T02:37:05.543Z,98472.22
2022-09-26T02:43:39.738Z,98471.22
2022-09-26T02:49:59.785Z,98466.47
2022-09-26T02:56:39.456Z,98449.59
2022-09-26T03:03:20.371Z,98449.78
2022-09-26T03:09:24.329Z,98440.72
2022-09-26T03:15:27.899Z,98428.91
2022-09-26T03:21:32.731Z,98422.97
2022-09-26T03:27:47.674Z,98411.84
2022-09-26T03:33:49.767Z,98406.63
2022-09-26T03:39:51.781Z,98400.28
2022-09-26T03:45:58.698Z,98402.22
2022-09-26T03:52:00.850Z,98394.75
2022-09-26T03:58:03.300Z,98388.84
2022-09-26T04:04:05.241Z,98385.75
2022-09-26T04:10:08.165Z,98365.78
2022-09-26T04:16:11.614Z,98358.16
2022-09-26T04:22:13.628Z,98352.03
2022-09-26T04:28:15.555Z,98343.03
2022-09-26T04:34:17.489Z,98338.31
2022-09-26T04:40:19.480Z,98325.75
2022-09-26T04:46:29.599Z,98313.59
2022-09-26T04:52:32.923Z,98315.03
2022-09-26T04:58:35.841Z,98313.97
2022-09-26T05:04:37.769Z,98307.78
2022-09-26T05:10:40.316Z,98300.41
2022-09-26T05:16:42.273Z,98290.25
2022-09-26T05:22:44.220Z,98276.91
2022-09-26T05:28:55.669Z,98274.59
2022-09-26T05:34:57.627Z,98262.34
2022-09-26T05:40:59.656Z,98264.84
2022-09-26T05:47:01.617Z,98255.81
2022-09-26T05:53:04.398Z,98262.84
2022-09-26T05:59:06.467Z,98253.69
2022-09-26T06:05:09.210Z,98251.69
2022-09-26T06:11:17.783Z,98249.00
2022-09-26T06:17:20.138Z,98246.34
2022-09-26T06:23:22.218Z,98235.25
2022-09-26T06:29:24.143Z,98234.81
2022-09-26T06:35:26.059Z,98216.69
2022-09-26T06:41:28.207Z,98214.06
2022-09-26T06:47:30.393Z,98208.38
2022-09-26T06:53:34.863Z,98202.78
2022-09-26T06:59:36.759Z,98191.91
2022-09-26T07:05:39.733Z,98175.69
2022-09-26T07:12:09.978Z,98190.78
2022-09-26T07:18:06.777Z,98200.19
2022-09-26T07:24:46.997Z,98174.66
2022-09-26T07:30:49.072Z,98179.81
2022-09-26T07:36:52.189Z,98180.97
2022-09-26T07:43:20.099Z,98175.97
2022-09-26T07:49:47.571Z,98170.78
2022-09-26T07:56:10.660Z,98156.81
2022-09-26T08:02:32.911Z,98155.53
2022-09-26T08:08:36.297Z,98153.31
2022-09-26T08:14:41.577Z,98165.13
2022-09-26T08:20:46.981Z,98163.91
2022-09-26T08:26:48.825Z,98155.19
2022-09-26T08:32:59.150Z,98147.16
2022-09-26T08:39:01.063Z,98139.19
2022-09-26T08:45:47.300Z,98132.47
2022-09-26T08:58:29.083Z,98127.78
2022-09-26T09:05:06.286Z,98111.41
2022-09-26T09:11:38.786Z,98117.56
2022-09-26T09:18:53.792Z,98108.19
2022-09-26T09:25:04.914Z,98114.50
2022-09-26T09:31:13.518Z,98105.19
2022-09-26T09:37:34.899Z,98094.41
2022-09-26T09:43:51.485Z,98079.13
2022-09-26T09:49:54.125Z,98084.41
2022-09-26T09:56:39.900Z,98063.69
2022-09-26T10:03:05.865Z,98058.56
2022-09-26T10:09:40.879Z,98044.59
2022-09-26T10:15:56.130Z,98026.50
2022-09-26T10:21:59.576Z,98022.13
2022-09-26T10:28:02.701Z,97998.56
2022-09-26T10:34:30.480Z,98015.13
2022-09-26T10:40:47.922Z,97999.13
2022-09-26T10:46:53.004Z,97985.72
2022-09-26T10:53:03.051Z,98005.06
2022-09-26T10:59:09.888Z,97992.84
2022-09-26T11:05:34.574Z,97986.56
2022-09-26T11:11:40.390Z,97985.34
2022-09-26T11:17:48.994Z,97976.16
2022-09-26T11:30:48.244Z,97957.88
2022-09-26T11:37:13.670Z,97945.50
2022-09-26T11:43:45.067Z,97948.19
2022-09-26T11:50:01.183Z,97925.91
2022-09-26T11:57:08.615Z,97915.91
2022-09-26T12:03:47.011Z,97919.28
2022-09-26T12:09:49.151Z,97905.66
2022-09-26T12:16:08.485Z,97899.16
2022-09-26T12:22:46.753Z,97897.25
2022-09-26T12:29:37.217Z,97884.78
2022-09-26T12:36:06.169Z,97871.28
2022-09-26T12:42:25.330Z,97874.00
2022-09-26T12:48:42.331Z,97866.16
2022-09-26T12:55:00.266Z,97858.31
2022-09-26T13:01:44.387Z,97830.47
2022-09-26T13:08:31.301Z,97836.34
2022-09-26T13:15:12.850Z,97827.41
2022-09-26T13:21:21.553Z,97824.19
2022-09-26T13:27:36.129Z,97822.84
2022-09-26T13:34:04.140Z,97804.44
2022-09-26T13:40:45.670Z,97809.31
2022-09-26T13:47:45.044Z,97813.91
2022-09-26T13:54:22.701Z,97801.25
2022-09-26T14:00:30.325Z,97791.50
2022-09-26T14:06:36.929Z,97790.41
2022-09-26T14:13:21.496Z,97779.28
2022-09-26T14:19:46.823Z,97779.00
2022-09-26T14:25:55.635Z,97773.88
2022-09-26T14:32:05.319Z,97771.09
2022-09-26T14:38:20.815Z,97764.44
2022-09-26T14:44:23.362Z,97770.53
2022-09-26T14:50:34.330Z,97755.38
2022-09-26T14:56:44.915Z,97758.34
2022-09-26T15:02:50.277Z,97744.91
2022-09-26T15:08:54.486Z,97732.22
2022-09-26T15:15:27.259Z,97735.03
2022-09-26T15:21:43.125Z,97719.66
2022-09-26T15:27:49.582Z,97706.25
2022-09-26T15:34:13.378Z,97698.63
2022-09-26T15:40:26.582Z,97683.47
2022-09-26T15:46:29.274Z,97653.13
2022-09-26T15:52:35.436Z,97656.63
2022-09-26T15:58:40.178Z,97659.47
2022-09-26T16:04:42.577Z,97661.97
2022-09-26T16:10:57.969Z,97651.09
2022-09-26T16:17:25.161Z,97660.78
2022-09-26T16:23:27.548Z,97665.28
2022-09-26T16:29:35.858Z,97662.31
2022-09-26T16:35:46.541Z,97647.72
2022-09-26T16:42:02.683Z,97637.91
2022-09-26T16:48:05.475Z,97631.38
2022-09-26T16:54:21.818Z,97629.09
2022-09-26T17:00:49.970Z,97620.25
2022-09-26T17:06:54.761Z,97608.31
2022-09-26T17:13:02.496Z,97604.91
2022-09-26T17:19:04.933Z,97610.75
2022-09-26T17:25:12.430Z,97599.72
2022-09-26T17:31:21.239Z,97601.38
2022-09-26T17:37:23.535Z,97594.38
2022-09-26T17:43:26.755Z,97583.03
2022-09-26T17:49:33.863Z,97573.06
2022-09-26T17:55:36.430Z,97566.38
2022-09-26T18:01:42.589Z,97569.91
2022-09-26T18:07:45.782Z,97566.06
2022-09-26T18:14:19.901Z,97546.03
2022-09-26T18:20:33.533Z,97537.84
2022-09-26T18:26:47.177Z,97531.06
2022-09-26T18:32:53.977Z,97520.72
2022-09-26T18:38:59.220Z,97518.56
2022-09-26T18:45:38.239Z,97523.31
2022-09-26T18:51:41.217Z,97519.47
2022-09-26T18:58:02.078Z,97523.59
2022-09-26T19:04:34.312Z,97515.53
2022-09-26T19:10:36.291Z,97506.16
2022-09-26T19:16:45.601Z,97505.63
2022-09-26T19:23:12.568Z,97501.53
2022-09-26T19:35:39.876Z,97482.97
2022-09-26T19:41:42.265Z,97475.16
2022-09-26T19:47:48.126Z,97467.31
2022-09-26T19:53:50.379Z,97473.38
2022-09-26T19:59:52.321Z,97450.84
2022-09-26T20:05:54.275Z,97443.31
2022-09-26T20:11:56.223Z,97425.88
2022-09-26T20:18:00.180Z,97426.50
2022-09-26T20:24:02.440Z,97405.84
2022-09-26T20:30:48.992Z,97399.47
2022-09-26T20:36:51.732Z,97391.06
2022-09-26T20:43:03.931Z,97366.28
2022-09-26T20:49:14.919Z,97366.22
2022-09-26T20:55:19.246Z,97355.00
2022-09-26T21:01:22.605Z,97347.56
2022-09-26T21:07:25.072Z,97330.88
2022-09-26T21:13:27.005Z,97333.94
2022-09-26T21:19:30.590Z,97317.47
2022-09-26T21:25:32.740Z,97312.75
2022-09-26T21:31:36.105Z,97299.53
2022-09-26T21:44:25.406Z,97282.31
2022-09-26T21:50:28.734Z,97286.81
2022-09-26T21:56:37.550Z,97285.75
2022-09-26T22:02:41.470Z,97276.75
2022-09-26T22:08:43.458Z,97266.75
2022-09-26T22:14:45.547Z,97248.75
2022-09-26T22:20:54.627Z,97246.06
2022-09-26T22:26:56.580Z,97238.59
2022-09-26T22:32:58.491Z,97224.19
2022-09-26T22:39:00.693Z,97212.91
2022-09-26T22:45:02.768Z,97209.88
2022-09-26T22:58:12.608Z,97199.38
2022-09-26T23:04:14.656Z,97193.03
2022-09-26T23:10:17.891Z,97179.38
2022-09-26T23:16:23.546Z,97174.97
2022-09-26T23:22:25.590Z,97163.69
2022-09-26T23:28:28.161Z,97158.22
2022-09-26T23:34:30.072Z,97157.75
2022-09-26T23:40:32.417Z,97147.03
2022-09-26T23:46:34.537Z,97136.88
2022-09-26T23:52:36.520Z,97117.72
2022-09-26T23:58:38.776Z,97117.66
